PWSweather.com
Personal Weather Stations
Station Observations
IROGLAN40
AalgaardNO 4330

AalgaardNO 4330

Lat: 58.773, Lon: 5.846

Elevation: 326

Station Type: Davis Vanatge Pro2

www.mavahome.com

High Low Average
Temperature 35.5°F1.9°C 30.4°F-0.9°C 33.4°F0.8°C
Dew Point 28.0°F-2.2°C 25.3°F-3.7°C 27.0°F-2.8°C
Winds 11.5 mph 18.5 kmh Calm Calm 2.0 mph SE3.2 kmh SE
Wind Gusts 19.6 mph31.5 kmh -- 4.0 mph6.4 kmh
Humidity 84% 73% 77%
Pressure 30.15 in1021.0 mb 29.93 in1013.5 mb -
Precipitation 0.00 in0.0 mm - -
Hour Temp Dew Point Humidity Winds Wind Gusts Pressure Precip Precip Rate Daily Precip Total
12:00 AM 34.9°F1.6°C 27.1°F-2.7°C 73% 3.5 mph SSE5.6 kmh SSE 6.9 mph11.1 kmh 29.93 in1013.5 mb - 0.00 in0.0 mm 0.00 in0.0 mm
12:10 AM 34.8°F1.6°C 27.0°F-2.8°C 73% 2.3 mph SE3.7 kmh SE 8.1 mph13.0 kmh 29.94 in1013.9 mb - 0.00 in0.0 mm 0.00 in0.0 mm
12:20 AM 34.7°F1.5°C 27.3°F-2.6°C 74% 2.3 mph S3.7 kmh S 11.5 mph18.5 kmh 29.93 in1013.5 mb - 0.00 in0.0 mm 0.00 in0.0 mm
12:30 AM 34.6°F1.4°C 26.8°F-2.9°C 73% 2.3 mph SE3.7 kmh SE 3.5 mph5.6 kmh 29.94 in1013.9 mb - 0.00 in0.0 mm 0.00 in0.0 mm
12:40 AM 34.6°F1.4°C 26.8°F-2.9°C 73% 3.5 mph SE5.6 kmh SE 11.5 mph18.5 kmh 29.94 in1013.9 mb - 0.00 in0.0 mm 0.00 in0.0 mm
12:50 AM 34.5°F1.4°C 26.7°F-2.9°C 73% 2.3 mph SE3.7 kmh SE 2.3 mph3.7 kmh 29.94 in1013.9 mb - 0.00 in0.0 mm 0.00 in0.0 mm
01:00 AM 34.5°F1.4°C 26.7°F-2.9°C 73% 3.5 mph SE5.6 kmh SE 4.6 mph7.4 kmh 29.94 in1013.9 mb - 0.00 in0.0 mm 0.00 in0.0 mm
01:10 AM 34.4°F1.3°C 26.7°F-2.9°C 73% 2.3 mph E3.7 kmh E 6.9 mph11.1 kmh 29.94 in1013.9 mb - 0.00 in0.0 mm 0.00 in0.0 mm
01:20 AM 34.4°F1.3°C 26.6°F-3.0°C 73% 2.3 mph S3.7 kmh S 6.9 mph11.1 kmh 29.94 in1013.9 mb - 0.00 in0.0 mm 0.00 in0.0 mm
01:30 AM 34.5°F1.4°C 26.7°F-2.9°C 73% 4.6 mph S7.4 kmh S 9.2 mph14.8 kmh 29.93 in1013.5 mb - 0.00 in0.0 mm 0.00 in0.0 mm
01:40 AM 34.6°F1.4°C 26.8°F-2.9°C 73% 2.3 mph WSW3.7 kmh WSW 4.6 mph7.4 kmh 29.94 in1013.9 mb - 0.00 in0.0 mm 0.00 in0.0 mm
01:50 AM 34.5°F1.4°C 27.1°F-2.7°C 74% 2.3 mph SE3.7 kmh SE 4.6 mph7.4 kmh 29.94 in1013.9 mb - 0.00 in0.0 mm 0.00 in0.0 mm
02:00 AM 34.5°F1.4°C 27.1°F-2.7°C 74% 1.2 mph E1.9 kmh E 3.5 mph5.6 kmh 29.94 in1013.9 mb - 0.00 in0.0 mm 0.00 in0.0 mm
02:10 AM 34.4°F1.3°C 27.0°F-2.8°C 74% 1.2 mph SE1.9 kmh SE 3.5 mph5.6 kmh 29.95 in1014.2 mb - 0.00 in0.0 mm 0.00 in0.0 mm
02:20 AM 34.3°F1.3°C 27.2°F-2.7°C 75% 1.2 mph SE1.9 kmh SE 2.3 mph3.7 kmh 29.95 in1014.2 mb - 0.00 in0.0 mm 0.00 in0.0 mm
02:30 AM 34.2°F1.2°C 27.1°F-2.7°C 75% 1.2 mph E1.9 kmh E 8.1 mph13.0 kmh 29.95 in1014.2 mb - 0.00 in0.0 mm 0.00 in0.0 mm
02:40 AM 34.3°F1.3°C 27.2°F-2.7°C 75% 1.2 mph E1.9 kmh E 3.5 mph5.6 kmh 29.95 in1014.2 mb - 0.00 in0.0 mm 0.00 in0.0 mm
02:50 AM 34.3°F1.3°C 27.2°F-2.7°C 75% 1.2 mph S1.9 kmh S 3.5 mph5.6 kmh 29.95 in1014.2 mb - 0.00 in0.0 mm 0.00 in0.0 mm
03:00 AM 34.3°F1.3°C 27.2°F-2.7°C 75% 1.2 mph SSE1.9 kmh SSE 8.1 mph13.0 kmh 29.95 in1014.2 mb - 0.00 in0.0 mm 0.00 in0.0 mm
03:10 AM 34.2°F1.2°C 27.1°F-2.7°C 75% 2.3 mph SE3.7 kmh SE 8.1 mph13.0 kmh 29.95 in1014.2 mb - 0.00 in0.0 mm 0.00 in0.0 mm
03:20 AM 34.1°F1.2°C 27.0°F-2.8°C 75% 2.3 mph SSE3.7 kmh SSE 9.2 mph14.8 kmh 29.95 in1014.2 mb - 0.00 in0.0 mm 0.00 in0.0 mm
03:30 AM 34.3°F1.3°C 27.2°F-2.7°C 75% 1.2 mph SE1.9 kmh SE 3.5 mph5.6 kmh 29.95 in1014.2 mb - 0.00 in0.0 mm 0.00 in0.0 mm
03:40 AM 34.3°F1.3°C 27.2°F-2.7°C 75% 2.3 mph WSW3.7 kmh WSW 6.9 mph11.1 kmh 29.96 in1014.6 mb - 0.00 in0.0 mm 0.00 in0.0 mm
03:50 AM 34.4°F1.3°C 27.3°F-2.6°C 75% 1.2 mph SE1.9 kmh SE 3.5 mph5.6 kmh 29.96 in1014.6 mb - 0.00 in0.0 mm 0.00 in0.0 mm
04:00 AM 34.3°F1.3°C 27.2°F-2.7°C 75% 2.3 mph ESE3.7 kmh ESE 6.9 mph11.1 kmh 29.96 in1014.6 mb - 0.00 in0.0 mm 0.00 in0.0 mm
04:10 AM 34.3°F1.3°C 27.2°F-2.7°C 75% 1.2 mph S1.9 kmh S 3.5 mph5.6 kmh 29.96 in1014.6 mb - 0.00 in0.0 mm 0.00 in0.0 mm
04:20 AM 34.3°F1.3°C 27.2°F-2.7°C 75% 1.2 mph SE1.9 kmh SE 3.5 mph5.6 kmh 29.96 in1014.6 mb - 0.00 in0.0 mm 0.00 in0.0 mm
04:30 AM 34.1°F1.2°C 27.0°F-2.8°C 75% 2.3 mph S3.7 kmh S 3.5 mph5.6 kmh 29.96 in1014.6 mb - 0.00 in0.0 mm 0.00 in0.0 mm
04:40 AM 34.2°F1.2°C 26.8°F-2.9°C 74% 2.3 mph S3.7 kmh S 3.5 mph5.6 kmh 29.96 in1014.6 mb - 0.00 in0.0 mm 0.00 in0.0 mm
04:50 AM 34.3°F1.3°C 26.9°F-2.8°C 74% 2.3 mph SSW3.7 kmh SSW 3.5 mph5.6 kmh 29.96 in1014.6 mb - 0.00 in0.0 mm 0.00 in0.0 mm
05:00 AM 34.4°F1.3°C 27.0°F-2.8°C 74% 3.5 mph SE5.6 kmh SE 4.6 mph7.4 kmh 29.96 in1014.6 mb - 0.00 in0.0 mm 0.00 in0.0 mm
05:10 AM 34.4°F1.3°C 27.0°F-2.8°C 74% 3.5 mph SSE5.6 kmh SSE 4.6 mph7.4 kmh 29.96 in1014.6 mb - 0.00 in0.0 mm 0.00 in0.0 mm
05:20 AM 34.5°F1.4°C 27.0°F-2.8°C 74% 1.2 mph SW1.9 kmh SW 5.8 mph9.3 kmh 29.96 in1014.6 mb - 0.00 in0.0 mm 0.00 in0.0 mm
05:30 AM 34.4°F1.3°C 27.3°F-2.6°C 75% 2.3 mph S3.7 kmh S 5.8 mph9.3 kmh 29.97 in1014.9 mb - 0.00 in0.0 mm 0.00 in0.0 mm
05:40 AM 34.5°F1.4°C 27.1°F-2.7°C 74% 2.3 mph SSE3.7 kmh SSE 3.5 mph5.6 kmh 29.97 in1014.9 mb - 0.00 in0.0 mm 0.00 in0.0 mm
05:50 AM 34.5°F1.4°C 27.1°F-2.7°C 74% 3.5 mph S5.6 kmh S 8.1 mph13.0 kmh 29.97 in1014.9 mb - 0.00 in0.0 mm 0.00 in0.0 mm
06:00 AM 34.6°F1.4°C 27.2°F-2.7°C 74% 3.5 mph SW5.6 kmh SW 11.5 mph18.5 kmh 29.97 in1014.9 mb - 0.00 in0.0 mm 0.00 in0.0 mm
06:10 AM 34.7°F1.5°C 27.3°F-2.6°C 74% 4.6 mph SSE7.4 kmh SSE 6.9 mph11.1 kmh 29.97 in1014.9 mb - 0.00 in0.0 mm 0.00 in0.0 mm
06:20 AM 34.7°F1.5°C 27.2°F-2.7°C 74% 3.5 mph SW5.6 kmh SW 16.1 mph25.9 kmh 29.98 in1015.2 mb - 0.00 in0.0 mm 0.00 in0.0 mm
06:30 AM 34.7°F1.5°C 27.3°F-2.6°C 74% 2.3 mph SSE3.7 kmh SSE 4.6 mph7.4 kmh 29.98 in1015.2 mb - 0.00 in0.0 mm 0.00 in0.0 mm
06:40 AM 34.7°F1.5°C 27.3°F-2.6°C 74% 4.6 mph S7.4 kmh S 9.2 mph14.8 kmh 29.98 in1015.2 mb - 0.00 in0.0 mm 0.00 in0.0 mm
06:50 AM 34.7°F1.5°C 27.3°F-2.6°C 74% 1.2 mph SSE1.9 kmh SSE 4.6 mph7.4 kmh 29.98 in1015.2 mb - 0.00 in0.0 mm 0.00 in0.0 mm
07:00 AM 34.7°F1.5°C 27.3°F-2.6°C 74% 3.5 mph ENE5.6 kmh ENE 6.9 mph11.1 kmh 29.98 in1015.2 mb - 0.00 in0.0 mm 0.00 in0.0 mm
07:10 AM 34.7°F1.5°C 27.3°F-2.6°C 74% 1.2 mph SW1.9 kmh SW 3.5 mph5.6 kmh 29.99 in1015.6 mb - 0.00 in0.0 mm 0.00 in0.0 mm
07:20 AM 34.8°F1.6°C 27.4°F-2.6°C 74% 2.3 mph SSE3.7 kmh SSE 4.6 mph7.4 kmh 29.99 in1015.6 mb - 0.00 in0.0 mm 0.00 in0.0 mm
07:30 AM 34.8°F1.6°C 27.1°F-2.7°C 73% 3.5 mph SSE5.6 kmh SSE 8.1 mph13.0 kmh 29.99 in1015.6 mb - 0.00 in0.0 mm 0.00 in0.0 mm
07:40 AM 35.0°F1.7°C 27.5°F-2.5°C 74% 3.5 mph SW5.6 kmh SW 4.6 mph7.4 kmh 30.00 in1015.9 mb - 0.00 in0.0 mm 0.00 in0.0 mm
07:50 AM 34.9°F1.6°C 27.1°F-2.7°C 73% 1.2 mph SE1.9 kmh SE 1.2 mph1.9 kmh 30.00 in1015.9 mb - 0.00 in0.0 mm 0.00 in0.0 mm
08:00 AM 34.9°F1.6°C 27.4°F-2.6°C 74% 2.3 mph N3.7 kmh N 11.5 mph18.5 kmh 30.00 in1015.9 mb - 0.00 in0.0 mm 0.00 in0.0 mm
08:10 AM 34.9°F1.6°C 27.5°F-2.5°C 74% Calm Calm 3.5 mph5.6 kmh 30.01 in1016.3 mb - 0.00 in0.0 mm 0.00 in0.0 mm
08:20 AM 35.0°F1.7°C 27.5°F-2.5°C 74% 2.3 mph SE3.7 kmh SE 3.5 mph5.6 kmh 30.01 in1016.3 mb - 0.00 in0.0 mm 0.00 in0.0 mm
08:30 AM 35.0°F1.7°C 27.2°F-2.7°C 73% 2.3 mph S3.7 kmh S 3.5 mph5.6 kmh 30.01 in1016.3 mb - 0.00 in0.0 mm 0.00 in0.0 mm
08:40 AM 35.0°F1.7°C 27.5°F-2.5°C 74% 1.2 mph SSE1.9 kmh SSE 2.3 mph3.7 kmh 30.01 in1016.3 mb - 0.00 in0.0 mm 0.00 in0.0 mm
08:50 AM 35.0°F1.7°C 27.5°F-2.5°C 74% 2.3 mph S3.7 kmh S 4.6 mph7.4 kmh 30.01 in1016.3 mb - 0.00 in0.0 mm 0.00 in0.0 mm
09:00 AM 35.0°F1.7°C 27.5°F-2.5°C 74% 4.6 mph S7.4 kmh S 6.9 mph11.1 kmh 30.02 in1016.6 mb - 0.00 in0.0 mm 0.00 in0.0 mm
09:10 AM 35.0°F1.7°C 27.5°F-2.5°C 74% 1.2 mph SE1.9 kmh SE 2.3 mph3.7 kmh 30.02 in1016.6 mb - 0.00 in0.0 mm 0.00 in0.0 mm
09:20 AM 34.9°F1.6°C 27.8°F-2.3°C 75% 1.2 mph SE1.9 kmh SE 2.3 mph3.7 kmh 30.02 in1016.6 mb - 0.00 in0.0 mm 0.00 in0.0 mm
09:30 AM 34.8°F1.6°C 27.7°F-2.4°C 75% 1.2 mph S1.9 kmh S 4.6 mph7.4 kmh 30.02 in1016.6 mb - 0.00 in0.0 mm 0.00 in0.0 mm
09:40 AM 34.8°F1.6°C 27.7°F-2.4°C 75% 2.3 mph SE3.7 kmh SE 4.6 mph7.4 kmh 30.02 in1016.6 mb - 0.00 in0.0 mm 0.00 in0.0 mm
09:50 AM 34.9°F1.6°C 27.7°F-2.4°C 75% 2.3 mph SSW3.7 kmh SSW 3.5 mph5.6 kmh 30.02 in1016.6 mb - 0.00 in0.0 mm 0.00 in0.0 mm
10:00 AM 35.1°F1.7°C 27.6°F-2.4°C 74% 4.6 mph SSW7.4 kmh SSW 8.1 mph13.0 kmh 30.03 in1016.9 mb - 0.00 in0.0 mm 0.00 in0.0 mm
10:10 AM 35.1°F1.7°C 28.0°F-2.2°C 75% 2.3 mph SSE3.7 kmh SSE 4.6 mph7.4 kmh 30.03 in1016.9 mb - 0.00 in0.0 mm 0.00 in0.0 mm
10:20 AM 35.2°F1.8°C 27.7°F-2.4°C 74% Calm Calm 3.5 mph5.6 kmh 30.04 in1017.3 mb - 0.00 in0.0 mm 0.00 in0.0 mm
10:30 AM 35.2°F1.8°C 27.7°F-2.4°C 74% 1.2 mph SSE1.9 kmh SSE 3.5 mph5.6 kmh 30.04 in1017.3 mb - 0.00 in0.0 mm 0.00 in0.0 mm
10:40 AM 35.2°F1.8°C 27.7°F-2.4°C 74% 2.3 mph SSW3.7 kmh SSW 5.8 mph9.3 kmh 30.05 in1017.6 mb - 0.00 in0.0 mm 0.00 in0.0 mm
10:50 AM 35.3°F1.8°C 27.8°F-2.3°C 74% 2.3 mph SSW3.7 kmh SSW 4.6 mph7.4 kmh 30.05 in1017.6 mb - 0.00 in0.0 mm 0.00 in0.0 mm
11:00 AM 35.3°F1.8°C 27.8°F-2.3°C 74% 1.2 mph SSE1.9 kmh SSE 3.5 mph5.6 kmh 30.05 in1017.6 mb - 0.00 in0.0 mm 0.00 in0.0 mm
11:10 AM 35.3°F1.8°C 27.8°F-2.3°C 74% 1.2 mph SE1.9 kmh SE 2.3 mph3.7 kmh 30.05 in1017.6 mb - 0.00 in0.0 mm 0.00 in0.0 mm
11:20 AM 35.3°F1.8°C 27.9°F-2.3°C 74% 1.2 mph S1.9 kmh S 3.5 mph5.6 kmh 30.05 in1017.6 mb - 0.00 in0.0 mm 0.00 in0.0 mm
11:30 AM 35.4°F1.9°C 27.9°F-2.3°C 74% 1.2 mph S1.9 kmh S 4.6 mph7.4 kmh 30.05 in1017.6 mb - 0.00 in0.0 mm 0.00 in0.0 mm
11:40 AM 35.5°F1.9°C 27.7°F-2.4°C 73% 2.3 mph SE3.7 kmh SE 3.5 mph5.6 kmh 30.06 in1017.9 mb - 0.00 in0.0 mm 0.00 in0.0 mm
11:50 AM 35.5°F1.9°C 28.0°F-2.2°C 74% 1.2 mph S1.9 kmh S -- 30.06 in1017.9 mb - 0.00 in0.0 mm 0.00 in0.0 mm
12:00 PM 34.1°F1.2°C 27.3°F-2.6°C 76% Calm Calm -- 30.06 in1017.9 mb - 0.00 in0.0 mm 0.00 in0.0 mm
12:10 PM 34.2°F1.2°C 27.7°F-2.4°C 77% Calm Calm -- 30.06 in1017.9 mb - 0.00 in0.0 mm 0.00 in0.0 mm
12:20 PM 34.2°F1.2°C 27.4°F-2.6°C 76% Calm Calm -- 30.06 in1017.9 mb - 0.00 in0.0 mm 0.00 in0.0 mm
12:30 PM 34.3°F1.3°C 27.5°F-2.5°C 76% Calm Calm -- 30.06 in1017.9 mb - 0.00 in0.0 mm 0.00 in0.0 mm
12:40 PM 34.3°F1.3°C 27.5°F-2.5°C 76% Calm Calm -- 30.06 in1017.9 mb - 0.00 in0.0 mm 0.00 in0.0 mm
12:50 PM 34.3°F1.3°C 27.5°F-2.5°C 76% Calm Calm -- 30.06 in1017.9 mb - 0.00 in0.0 mm 0.00 in0.0 mm
01:00 PM 34.2°F1.2°C 27.4°F-2.6°C 76% Calm Calm -- 30.07 in1018.3 mb - 0.00 in0.0 mm 0.00 in0.0 mm
01:10 PM 34.1°F1.2°C 27.6°F-2.4°C 77% Calm Calm -- 30.07 in1018.3 mb - 0.00 in0.0 mm 0.00 in0.0 mm
01:20 PM 34.0°F1.1°C 27.5°F-2.5°C 77% Calm Calm -- 30.07 in1018.3 mb - 0.00 in0.0 mm 0.00 in0.0 mm
01:30 PM 34.0°F1.1°C 27.5°F-2.5°C 77% Calm Calm -- 30.07 in1018.3 mb - 0.00 in0.0 mm 0.00 in0.0 mm
01:40 PM 33.9°F1.1°C 27.4°F-2.6°C 77% Calm Calm -- 30.07 in1018.3 mb - 0.00 in0.0 mm 0.00 in0.0 mm
01:50 PM 33.9°F1.1°C 27.4°F-2.6°C 77% Calm Calm -- 30.07 in1018.3 mb - 0.00 in0.0 mm 0.00 in0.0 mm
02:00 PM 33.8°F1.0°C 27.4°F-2.6°C 77% Calm Calm -- 30.07 in1018.3 mb - 0.00 in0.0 mm 0.00 in0.0 mm
02:10 PM 33.6°F0.9°C 27.5°F-2.5°C 78% Calm Calm -- 30.08 in1018.6 mb - 0.00 in0.0 mm 0.00 in0.0 mm
02:20 PM 33.6°F0.9°C 27.4°F-2.6°C 78% Calm Calm -- 30.07 in1018.3 mb - 0.00 in0.0 mm 0.00 in0.0 mm
02:30 PM 33.5°F0.8°C 27.4°F-2.6°C 78% Calm Calm -- 30.08 in1018.6 mb - 0.00 in0.0 mm 0.00 in0.0 mm
02:40 PM 33.4°F0.8°C 27.3°F-2.6°C 78% Calm Calm -- 30.08 in1018.6 mb - 0.00 in0.0 mm 0.00 in0.0 mm
02:50 PM 33.4°F0.8°C 27.3°F-2.6°C 78% Calm Calm -- 30.08 in1018.6 mb - 0.00 in0.0 mm 0.00 in0.0 mm
03:00 PM 33.3°F0.7°C 27.2°F-2.7°C 78% Calm Calm -- 30.08 in1018.6 mb - 0.00 in0.0 mm 0.00 in0.0 mm
03:10 PM 33.1°F0.6°C 27.0°F-2.8°C 78% Calm Calm -- 30.08 in1018.6 mb - 0.00 in0.0 mm 0.00 in0.0 mm
03:20 PM 32.9°F0.5°C 27.1°F-2.7°C 79% Calm Calm -- 30.09 in1019.0 mb - 0.00 in0.0 mm 0.00 in0.0 mm
03:30 PM 32.7°F0.4°C 27.2°F-2.7°C 80% Calm Calm -- 30.09 in1019.0 mb - 0.00 in0.0 mm 0.00 in0.0 mm
03:40 PM 32.4°F0.2°C 26.9°F-2.8°C 80% Calm Calm -- 30.09 in1019.0 mb - 0.00 in0.0 mm 0.00 in0.0 mm
03:50 PM 32.3°F0.2°C 27.1°F-2.7°C 81% Calm Calm -- 30.09 in1019.0 mb - 0.00 in0.0 mm 0.00 in0.0 mm
04:00 PM 32.1°F0.1°C 26.9°F-2.8°C 81% Calm Calm -- 30.09 in1019.0 mb - 0.00 in0.0 mm 0.00 in0.0 mm
04:10 PM 31.9°F-0.1°C 27.0°F-2.8°C 82% Calm Calm -- 30.09 in1019.0 mb - 0.00 in0.0 mm 0.00 in0.0 mm
04:20 PM 31.8°F-0.1°C 26.9°F-2.8°C 82% Calm Calm -- 30.09 in1019.0 mb - 0.00 in0.0 mm 0.00 in0.0 mm
04:30 PM 31.6°F-0.2°C 27.0°F-2.8°C 83% Calm Calm -- 30.09 in1019.0 mb - 0.00 in0.0 mm 0.00 in0.0 mm
04:40 PM 31.5°F-0.3°C 27.0°F-2.8°C 83% Calm Calm -- 30.09 in1019.0 mb - 0.00 in0.0 mm 0.00 in0.0 mm
04:50 PM 31.5°F-0.3°C 26.9°F-2.8°C 83% Calm Calm -- 30.09 in1019.0 mb - 0.00 in0.0 mm 0.00 in0.0 mm
05:00 PM 31.4°F-0.3°C 26.8°F-2.9°C 83% Calm Calm -- 30.09 in1019.0 mb - 0.00 in0.0 mm 0.00 in0.0 mm
05:10 PM 31.4°F-0.3°C 26.8°F-2.9°C 83% Calm Calm -- 30.09 in1019.0 mb - 0.00 in0.0 mm 0.00 in0.0 mm
05:20 PM 31.3°F-0.4°C 26.7°F-2.9°C 83% Calm Calm -- 30.10 in1019.3 mb - 0.00 in0.0 mm 0.00 in0.0 mm
05:30 PM 31.3°F-0.4°C 26.7°F-2.9°C 83% Calm Calm -- 30.09 in1019.0 mb - 0.00 in0.0 mm 0.00 in0.0 mm
05:40 PM 31.2°F-0.4°C 26.6°F-3.0°C 83% Calm Calm -- 30.10 in1019.3 mb - 0.00 in0.0 mm 0.00 in0.0 mm
05:50 PM 31.2°F-0.4°C 26.6°F-3.0°C 83% Calm Calm -- 30.10 in1019.3 mb - 0.00 in0.0 mm 0.00 in0.0 mm
06:00 PM 31.3°F-0.4°C 26.7°F-2.9°C 83% Calm Calm -- 30.11 in1019.6 mb - 0.00 in0.0 mm 0.00 in0.0 mm
06:10 PM 31.3°F-0.4°C 26.7°F-2.9°C 83% Calm Calm -- 30.11 in1019.6 mb - 0.00 in0.0 mm 0.00 in0.0 mm
06:20 PM 31.2°F-0.4°C 26.6°F-3.0°C 83% Calm Calm -- 30.11 in1019.6 mb - 0.00 in0.0 mm 0.00 in0.0 mm
06:30 PM 31.3°F-0.4°C 26.7°F-2.9°C 83% Calm Calm -- 30.11 in1019.6 mb - 0.00 in0.0 mm 0.00 in0.0 mm
06:40 PM 31.1°F-0.5°C 26.5°F-3.1°C 83% Calm Calm -- 30.12 in1020.0 mb - 0.00 in0.0 mm 0.00 in0.0 mm
06:50 PM 31.0°F-0.6°C 26.7°F-2.9°C 84% Calm Calm -- 30.12 in1020.0 mb - 0.00 in0.0 mm 0.00 in0.0 mm
07:00 PM 30.9°F-0.6°C 26.6°F-3.0°C 84% Calm Calm -- 30.12 in1020.0 mb - 0.00 in0.0 mm 0.00 in0.0 mm
07:10 PM 30.9°F-0.6°C 26.3°F-3.2°C 83% Calm Calm -- 30.13 in1020.3 mb - 0.00 in0.0 mm 0.00 in0.0 mm
07:20 PM 30.9°F-0.6°C 26.3°F-3.2°C 83% Calm Calm -- 30.13 in1020.3 mb - 0.00 in0.0 mm 0.00 in0.0 mm
07:30 PM 30.9°F-0.6°C 26.0°F-3.3°C 82% Calm Calm -- 30.13 in1020.3 mb - 0.00 in0.0 mm 0.00 in0.0 mm
07:40 PM 30.8°F-0.7°C 25.9°F-3.4°C 82% Calm Calm -- 30.14 in1020.7 mb - 0.00 in0.0 mm 0.00 in0.0 mm
07:50 PM 30.6°F-0.8°C 25.8°F-3.4°C 82% Calm Calm -- 30.14 in1020.7 mb - 0.00 in0.0 mm 0.00 in0.0 mm
08:00 PM 30.7°F-0.7°C 25.9°F-3.4°C 82% Calm Calm -- 30.14 in1020.7 mb - 0.00 in0.0 mm 0.00 in0.0 mm
08:10 PM 30.7°F-0.7°C 25.6°F-3.6°C 81% Calm Calm -- 30.14 in1020.7 mb - 0.00 in0.0 mm 0.00 in0.0 mm
08:20 PM 30.7°F-0.7°C 25.6°F-3.6°C 81% Calm Calm -- 30.14 in1020.7 mb - 0.00 in0.0 mm 0.00 in0.0 mm
08:30 PM 30.7°F-0.7°C 25.6°F-3.6°C 81% Calm Calm -- 30.13 in1020.3 mb - 0.00 in0.0 mm 0.00 in0.0 mm
08:40 PM 30.7°F-0.7°C 25.5°F-3.6°C 81% Calm Calm -- 30.14 in1020.7 mb - 0.00 in0.0 mm 0.00 in0.0 mm
08:50 PM 30.6°F-0.8°C 25.5°F-3.6°C 81% Calm Calm -- 30.14 in1020.7 mb - 0.00 in0.0 mm 0.00 in0.0 mm
09:00 PM 30.6°F-0.8°C 25.5°F-3.6°C 81% Calm Calm -- 30.14 in1020.7 mb - 0.00 in0.0 mm 0.00 in0.0 mm
09:10 PM 30.6°F-0.8°C 25.5°F-3.6°C 81% Calm Calm -- 30.14 in1020.7 mb - 0.00 in0.0 mm 0.00 in0.0 mm
09:20 PM 30.6°F-0.8°C 25.5°F-3.6°C 81% Calm Calm -- 30.15 in1021.0 mb - 0.00 in0.0 mm 0.00 in0.0 mm
09:30 PM 30.6°F-0.8°C 25.5°F-3.6°C 81% Calm Calm -- 30.15 in1021.0 mb - 0.00 in0.0 mm 0.00 in0.0 mm
09:40 PM 30.5°F-0.8°C 25.4°F-3.7°C 81% Calm Calm -- 30.14 in1020.7 mb - 0.00 in0.0 mm 0.00 in0.0 mm
09:50 PM 30.5°F-0.8°C 25.4°F-3.7°C 81% Calm Calm -- 30.14 in1020.7 mb - 0.00 in0.0 mm 0.00 in0.0 mm
10:00 PM 30.4°F-0.9°C 25.3°F-3.7°C 81% Calm Calm -- 30.14 in1020.7 mb - 0.00 in0.0 mm 0.00 in0.0 mm
10:10 PM 32.5°F0.3°C 26.4°F-3.1°C 78% 8.1 mph SE13.0 kmh SE 13.8 mph22.2 kmh 30.14 in1020.7 mb - 0.00 in0.0 mm 0.00 in0.0 mm
10:20 PM 32.5°F0.3°C 26.4°F-3.1°C 78% 6.9 mph SE11.1 kmh SE 12.7 mph20.4 kmh 30.14 in1020.7 mb - 0.00 in0.0 mm 0.00 in0.0 mm
10:30 PM 32.5°F0.3°C 26.4°F-3.1°C 78% 9.2 mph SE14.8 kmh SE 10.4 mph16.7 kmh 30.14 in1020.7 mb - 0.00 in0.0 mm 0.00 in0.0 mm
10:40 PM 32.4°F0.2°C 26.3°F-3.2°C 78% 11.5 mph SE18.5 kmh SE 17.3 mph27.8 kmh 30.14 in1020.7 mb - 0.00 in0.0 mm 0.00 in0.0 mm
10:50 PM 32.4°F0.2°C 26.3°F-3.2°C 78% 9.2 mph SE14.8 kmh SE 18.4 mph29.6 kmh 30.14 in1020.7 mb - 0.00 in0.0 mm 0.00 in0.0 mm
11:00 PM 32.3°F0.2°C 26.2°F-3.2°C 78% 6.9 mph SE11.1 kmh SE 11.5 mph18.5 kmh 30.14 in1020.7 mb - 0.00 in0.0 mm 0.00 in0.0 mm
11:10 PM 32.3°F0.2°C 26.2°F-3.2°C 78% 9.2 mph SE14.8 kmh SE 16.1 mph25.9 kmh 30.13 in1020.3 mb - 0.00 in0.0 mm 0.00 in0.0 mm
11:20 PM 32.3°F0.2°C 26.5°F-3.1°C 79% 10.4 mph SE16.7 kmh SE 18.4 mph29.6 kmh 30.14 in1020.7 mb - 0.00 in0.0 mm 0.00 in0.0 mm
11:30 PM 32.3°F0.2°C 26.5°F-3.1°C 79% 11.5 mph ESE18.5 kmh ESE 17.3 mph27.8 kmh 30.14 in1020.7 mb - 0.00 in0.0 mm 0.00 in0.0 mm
11:40 PM 32.3°F0.2°C 26.5°F-3.1°C 79% 10.4 mph SE16.7 kmh SE 15.0 mph24.1 kmh 30.13 in1020.3 mb - 0.00 in0.0 mm 0.00 in0.0 mm
11:50 PM 32.2°F0.1°C 26.4°F-3.1°C 79% 11.5 mph SE18.5 kmh SE 19.6 mph31.5 kmh 30.13 in1020.3 mb - 0.00 in0.0 mm 0.00 in0.0 mm